Chia-i, Taiwan
Current Conditions -  °F | °C
As of 7:00 PM on Friday 24 Oct 2014 (Local Time) from RCMQ Reporting Station
Broken Clouds Broken Clouds  
Wind Chill: 72°   Ceiling: 10000
Heat Index: 72°   Visibility: 6mi
Dew Point: 66°   Wind: 10mph
Humidity: 83%   Direction: 10°N
Pressure: 29.97"   Gusts: NA
Location:  23.48°N, 120.44°E
Report Text: RCMQ 241100Z 01009KT 9999 FEW012 BKN100 22/19 Q1015 NOSIG RMK A3000
Loading
Personal Weather Stations






























Interactive Weather Map
Tropical Storm Tracking
New forecast layout! Learn more

10-Day Weather Forecast

Advertisements
Track Severe Weather on mobile